createdAt,value
2023-02-24T00:01:24.843Z,11.50
2023-02-24T00:03:53.399Z,11.97
2023-02-24T00:06:20.841Z,10.53
2023-02-24T00:08:49.592Z,10.80
2023-02-24T00:11:18.790Z,11.33
2023-02-24T00:13:47.689Z,12.00
2023-02-24T00:16:16.669Z,10.50
2023-02-24T00:18:46.134Z,11.50
2023-02-24T00:21:15.683Z,10.10
2023-02-24T00:23:46.286Z,10.93
2023-02-24T00:26:16.751Z,11.40
2023-02-24T00:28:45.236Z,10.73
2023-02-24T00:31:16.426Z,10.73
2023-02-24T00:33:46.269Z,11.03
2023-02-24T00:36:15.123Z,10.83
2023-02-24T00:38:46.986Z,11.17
2023-02-24T00:41:16.791Z,10.83
2023-02-24T00:43:46.872Z,11.40
2023-02-24T00:46:17.095Z,10.67
2023-02-24T00:48:46.868Z,11.33
2023-02-24T00:51:16.558Z,11.00
2023-02-24T00:53:44.352Z,10.53
2023-02-24T00:56:12.920Z,10.80
2023-02-24T00:58:40.384Z,11.33
2023-02-24T01:01:13.700Z,10.63
2023-02-24T01:03:41.639Z,10.83
2023-02-24T01:06:12.036Z,11.33
2023-02-24T01:08:47.998Z,10.57
2023-02-24T01:11:36.238Z,10.67
2023-02-24T01:14:06.981Z,10.87
2023-02-24T01:16:36.736Z,10.17
2023-02-24T01:19:05.722Z,11.00
2023-02-24T01:21:34.779Z,10.47
2023-02-24T01:24:02.588Z,10.50
2023-02-24T01:26:30.908Z,10.63
2023-02-24T01:29:02.572Z,10.90
2023-02-24T01:31:31.822Z,10.90
2023-02-24T01:34:05.757Z,11.03
2023-02-24T01:36:34.700Z,11.57
2023-02-24T01:39:04.235Z,11.17
2023-02-24T01:41:31.704Z,11.20
2023-02-24T01:44:01.930Z,11.30
2023-02-24T01:46:33.452Z,10.73
2023-02-24T01:49:08.240Z,10.97
2023-02-24T01:51:39.814Z,11.03
2023-02-24T01:54:10.059Z,10.30
2023-02-24T01:56:38.599Z,10.67
2023-02-24T01:59:06.158Z,10.93
2023-02-24T02:01:40.468Z,10.10
2023-02-24T02:04:12.824Z,9.93
2023-02-24T02:06:46.973Z,9.83
2023-02-24T02:09:15.830Z,10.10
2023-02-24T02:11:45.987Z,10.30
2023-02-24T02:14:13.482Z,10.30
2023-02-24T02:16:56.067Z,10.63
2023-02-24T02:19:43.452Z,10.40
2023-02-24T02:22:26.816Z,9.70
2023-02-24T02:24:56.269Z,10.20
2023-02-24T02:27:42.431Z,9.93
2023-02-24T02:30:24.769Z,9.70
2023-02-24T02:33:01.968Z,9.63
2023-02-24T02:35:36.734Z,9.73
2023-02-24T02:38:09.171Z,10.27
2023-02-24T02:40:41.012Z,9.17
2023-02-24T02:43:16.477Z,9.53
2023-02-24T02:45:50.886Z,9.00
2023-02-24T02:48:21.116Z,8.83
2023-02-24T02:50:52.314Z,9.93
2023-02-24T02:53:25.409Z,9.57
2023-02-24T02:55:56.547Z,9.80
2023-02-24T02:58:26.577Z,10.17
2023-02-24T03:01:03.876Z,9.67
2023-02-24T03:03:33.906Z,9.33
2023-02-24T03:06:07.071Z,8.40
2023-02-24T03:08:37.529Z,10.27
2023-02-24T03:11:08.318Z,10.33
2023-02-24T03:13:38.692Z,9.23
2023-02-24T03:16:09.842Z,9.60
2023-02-24T03:18:39.467Z,9.20
2023-02-24T03:21:09.336Z,9.93
2023-02-24T03:23:39.093Z,10.40
2023-02-24T03:26:16.986Z,9.30
2023-02-24T03:28:50.009Z,9.73
2023-02-24T03:31:22.741Z,10.13
2023-02-24T03:34:00.786Z,10.97
2023-02-24T03:36:30.807Z,10.23
2023-02-24T03:39:02.054Z,10.77
2023-02-24T03:41:38.464Z,10.30
2023-02-24T03:44:09.474Z,9.40
2023-02-24T03:46:36.955Z,9.73
2023-02-24T03:49:09.889Z,9.90
2023-02-24T03:51:44.663Z,9.73
2023-02-24T03:54:23.429Z,9.43
2023-02-24T03:56:57.859Z,9.57
2023-02-24T03:59:30.644Z,10.00
2023-02-24T04:02:01.571Z,9.27
2023-02-24T04:04:38.693Z,9.37
2023-02-24T04:07:26.311Z,9.33
2023-02-24T04:09:59.191Z,9.77
2023-02-24T04:12:29.018Z,9.70
2023-02-24T04:15:04.829Z,9.50
2023-02-24T04:17:35.107Z,9.73
2023-02-24T04:20:10.600Z,10.13
2023-02-24T04:22:44.105Z,10.13
2023-02-24T04:25:13.565Z,10.93
2023-02-24T04:27:43.587Z,9.93
2023-02-24T04:30:15.544Z,10.50
2023-02-24T04:32:44.035Z,10.13
2023-02-24T04:35:13.604Z,9.73
2023-02-24T04:37:46.779Z,10.37
2023-02-24T04:40:16.852Z,11.30
2023-02-24T04:42:49.190Z,12.07
2023-02-24T04:45:20.738Z,11.90
2023-02-24T04:47:51.129Z,11.57
2023-02-24T04:50:23.657Z,11.73
2023-02-24T04:52:53.244Z,10.90
2023-02-24T04:55:22.300Z,11.33
2023-02-24T04:57:50.016Z,10.90
2023-02-24T05:00:26.827Z,10.93
2023-02-24T05:02:56.270Z,11.30
2023-02-24T05:05:25.432Z,11.47
2023-02-24T05:07:55.174Z,11.43
2023-02-24T05:10:27.700Z,10.93
2023-02-24T05:12:55.202Z,10.60
2023-02-24T05:15:22.537Z,10.03
2023-02-24T05:17:52.328Z,9.73
2023-02-24T05:20:37.415Z,9.27
2023-02-24T05:23:06.635Z,10.40
2023-02-24T05:25:37.593Z,9.50
2023-02-24T05:28:06.430Z,9.33
2023-02-24T05:30:34.546Z,9.00
2023-02-24T05:33:02.207Z,9.80
2023-02-24T05:35:32.206Z,10.03
2023-02-24T05:38:00.652Z,9.37
2023-02-24T05:40:30.252Z,9.93
2023-02-24T05:42:58.131Z,10.07
2023-02-24T05:45:30.636Z,10.17
2023-02-24T05:47:59.336Z,9.40
2023-02-24T05:50:27.621Z,10.27
2023-02-24T05:52:56.344Z,10.67
2023-02-24T05:55:23.694Z,10.17
2023-02-24T05:57:53.161Z,10.10
2023-02-24T06:00:25.782Z,10.97
2023-02-24T06:02:53.284Z,10.67
2023-02-24T06:05:26.612Z,9.67
2023-02-24T06:08:04.372Z,11.10
2023-02-24T06:10:33.898Z,10.47
2023-02-24T06:13:03.448Z,10.77
2023-02-24T06:15:32.398Z,10.60
2023-02-24T06:18:00.884Z,10.97
2023-02-24T06:20:29.034Z,10.83
2023-02-24T06:22:59.000Z,10.97
2023-02-24T06:25:26.942Z,10.23
2023-02-24T06:27:55.456Z,10.67
2023-02-24T06:30:24.920Z,9.70
2023-02-24T06:32:52.478Z,10.17
2023-02-24T06:35:20.086Z,10.30
2023-02-24T06:37:47.836Z,10.67
2023-02-24T06:40:17.131Z,11.53
2023-02-24T06:42:49.394Z,12.63
2023-02-24T06:45:17.435Z,12.20
2023-02-24T06:47:48.693Z,12.53
2023-02-24T06:50:16.247Z,12.33
2023-02-24T06:52:43.910Z,12.33
2023-02-24T06:55:25.077Z,12.37
2023-02-24T06:57:56.964Z,12.40
2023-02-24T07:00:37.051Z,11.80
2023-02-24T07:03:18.257Z,12.60
2023-02-24T07:05:50.303Z,12.33
2023-02-24T07:08:19.059Z,12.10
2023-02-24T07:10:48.294Z,12.40
2023-02-24T07:13:16.068Z,11.60
2023-02-24T07:15:49.012Z,11.97
2023-02-24T07:18:18.359Z,11.13
2023-02-24T07:20:46.772Z,11.47
2023-02-24T07:23:15.022Z,11.40
2023-02-24T07:25:46.563Z,11.83
2023-02-24T07:28:14.108Z,11.87
2023-02-24T07:30:43.008Z,11.50
2023-02-24T07:33:11.840Z,12.00
2023-02-24T07:35:41.606Z,11.60
2023-02-24T07:38:09.412Z,13.30
2023-02-24T07:40:36.840Z,15.67
2023-02-24T07:43:07.164Z,16.23
2023-02-24T07:45:37.028Z,16.37
2023-02-24T07:48:05.480Z,16.43
2023-02-24T07:50:33.575Z,16.50
2023-02-24T07:53:04.916Z,16.93
2023-02-24T07:55:35.823Z,16.43
2023-02-24T07:58:05.740Z,15.50
2023-02-24T08:00:50.599Z,16.23
2023-02-24T08:03:18.470Z,16.47
2023-02-24T08:05:46.437Z,15.00
2023-02-24T08:08:22.947Z,16.33
2023-02-24T08:10:56.057Z,17.47
2023-02-24T08:13:23.507Z,16.43
2023-02-24T08:15:56.471Z,16.30
2023-02-24T08:18:24.359Z,15.43
2023-02-24T08:20:52.937Z,15.57
2023-02-24T08:23:23.320Z,15.33
2023-02-24T08:25:50.744Z,16.33
2023-02-24T08:28:18.125Z,18.77
2023-02-24T08:30:46.515Z,20.43
2023-02-24T08:33:17.317Z,19.20
2023-02-24T08:35:45.533Z,20.63
2023-02-24T08:38:14.945Z,21.33
2023-02-24T08:40:55.697Z,22.00
2023-02-24T08:43:32.549Z,20.30
2023-02-24T08:46:03.500Z,20.87
2023-02-24T08:48:38.061Z,19.87
2023-02-24T08:51:07.832Z,21.57
2023-02-24T08:53:40.201Z,21.97
2023-02-24T08:56:12.585Z,23.10
2023-02-24T08:58:46.820Z,23.10
2023-02-24T09:01:20.078Z,22.30
2023-02-24T09:03:48.400Z,20.33
2023-02-24T09:06:17.457Z,20.77
2023-02-24T09:08:46.717Z,19.50
2023-02-24T09:11:17.220Z,19.57
2023-02-24T09:13:52.494Z,19.67
2023-02-24T09:16:20.833Z,18.93
2023-02-24T09:19:10.024Z,18.33
2023-02-24T09:21:54.527Z,19.60
2023-02-24T09:24:26.996Z,19.10
2023-02-24T09:26:58.544Z,20.40
2023-02-24T09:29:35.179Z,24.93
2023-02-24T09:32:05.683Z,29.83
2023-02-24T09:34:35.375Z,28.10
2023-02-24T09:37:04.607Z,26.27
2023-02-24T09:39:53.416Z,24.23
2023-02-24T09:42:34.992Z,21.73
2023-02-24T09:45:12.177Z,19.80
2023-02-24T09:47:56.531Z,20.77
2023-02-24T09:50:55.496Z,19.20
2023-02-24T09:53:20.395Z,17.60
2023-02-24T09:56:01.077Z,16.80
2023-02-24T09:58:43.323Z,16.17
2023-02-24T10:01:30.754Z,14.60
2023-02-24T10:04:14.824Z,14.83
2023-02-24T10:06:48.647Z,14.63
2023-02-24T10:09:23.387Z,14.53
2023-02-24T10:11:55.416Z,14.20
2023-02-24T10:14:37.903Z,14.87
2023-02-24T10:17:30.433Z,13.90
2023-02-24T10:20:02.285Z,14.20
2023-02-24T10:22:34.770Z,13.80
2023-02-24T10:25:11.762Z,13.73
2023-02-24T10:27:44.575Z,13.80
2023-02-24T10:30:19.690Z,13.57
2023-02-24T10:32:50.625Z,13.90
2023-02-24T10:35:19.482Z,13.93
2023-02-24T10:37:47.061Z,13.87
2023-02-24T10:40:24.681Z,15.33
2023-02-24T10:42:54.957Z,16.63
2023-02-24T10:45:25.382Z,15.63
2023-02-24T10:47:57.638Z,15.73
2023-02-24T10:50:27.638Z,15.37
2023-02-24T10:53:25.959Z,15.67
2023-02-24T10:55:54.207Z,15.97
2023-02-24T10:58:28.113Z,16.00
2023-02-24T11:01:18.543Z,16.30
2023-02-24T11:04:02.004Z,15.90
2023-02-24T11:06:52.576Z,15.17
2023-02-24T11:09:32.073Z,14.43
2023-02-24T11:12:18.767Z,15.17
2023-02-24T11:15:08.747Z,15.57
2023-02-24T11:17:38.162Z,14.33
2023-02-24T11:20:10.758Z,15.47
2023-02-24T11:22:39.424Z,15.47
2023-02-24T11:25:10.027Z,15.70
2023-02-24T11:27:37.463Z,14.90
2023-02-24T11:30:10.693Z,14.47
2023-02-24T11:32:51.166Z,15.03
2023-02-24T11:35:20.535Z,14.27
2023-02-24T11:37:54.113Z,15.77
2023-02-24T11:40:23.767Z,14.80
2023-02-24T11:42:52.881Z,15.30
2023-02-24T11:45:26.064Z,15.80
2023-02-24T11:47:56.368Z,15.87
2023-02-24T11:50:29.566Z,14.97
2023-02-24T11:52:57.878Z,15.87
2023-02-24T11:55:29.577Z,15.13
2023-02-24T11:57:59.128Z,14.93
2023-02-24T12:00:27.874Z,14.33
2023-02-24T12:03:01.351Z,14.40
2023-02-24T12:05:34.878Z,13.97
2023-02-24T12:08:05.098Z,13.70
2023-02-24T12:10:35.398Z,13.90
2023-02-24T12:13:08.413Z,13.60
2023-02-24T12:15:40.205Z,13.60
2023-02-24T12:18:14.773Z,14.60
2023-02-24T12:20:43.952Z,14.07
2023-02-24T12:23:17.962Z,14.00
2023-02-24T12:25:54.945Z,14.43
2023-02-24T12:28:30.809Z,15.47
2023-02-24T12:31:03.149Z,14.10
2023-02-24T12:33:49.154Z,14.70
2023-02-24T12:36:23.504Z,13.57
2023-02-24T12:38:54.202Z,13.83
2023-02-24T12:41:32.747Z,13.17
2023-02-24T12:44:11.485Z,13.57
2023-02-24T12:46:41.911Z,13.00
2023-02-24T12:49:24.469Z,14.27
2023-02-24T12:51:57.101Z,13.57
2023-02-24T12:54:27.142Z,13.53
2023-02-24T12:57:01.521Z,13.97
2023-02-24T12:59:30.377Z,12.60
2023-02-24T13:02:01.398Z,12.57
2023-02-24T13:04:36.456Z,11.23
2023-02-24T13:07:23.193Z,11.33
2023-02-24T13:09:57.123Z,11.57
2023-02-24T13:12:28.099Z,11.47
2023-02-24T13:14:55.684Z,11.43
2023-02-24T13:17:24.538Z,10.80
2023-02-24T13:19:54.228Z,10.83
2023-02-24T13:22:29.986Z,10.07
2023-02-24T13:24:59.490Z,10.33
2023-02-24T13:27:27.530Z,10.40
2023-02-24T13:29:57.677Z,10.30
2023-02-24T13:32:28.347Z,9.63
2023-02-24T13:34:58.349Z,10.73
2023-02-24T13:37:34.354Z,11.10
2023-02-24T13:40:12.825Z,10.20
2023-02-24T13:42:40.243Z,8.40
2023-02-24T13:45:19.931Z,10.00
2023-02-24T13:48:10.117Z,8.07
2023-02-24T13:50:42.663Z,7.73
2023-02-24T13:53:17.977Z,7.77
2023-02-24T13:55:51.661Z,7.73
2023-02-24T13:58:26.762Z,7.40
2023-02-24T14:01:00.830Z,7.50
2023-02-24T14:03:29.620Z,6.93
2023-02-24T14:05:59.089Z,7.53
2023-02-24T14:08:30.535Z,6.33
2023-02-24T14:10:59.252Z,6.90
2023-02-24T14:13:29.716Z,6.73
2023-02-24T14:15:57.709Z,6.37
2023-02-24T14:18:26.433Z,6.33
2023-02-24T14:20:54.557Z,6.73
2023-02-24T14:23:24.528Z,6.70
2023-02-24T14:25:57.375Z,6.40
2023-02-24T14:28:26.433Z,7.27
2023-02-24T14:30:54.425Z,6.63
2023-02-24T14:33:26.776Z,7.10
2023-02-24T14:35:54.225Z,5.83
2023-02-24T14:38:33.552Z,6.13
2023-02-24T14:41:01.507Z,5.80
2023-02-24T14:43:29.463Z,4.80
2023-02-24T14:45:58.485Z,4.43
2023-02-24T14:48:27.290Z,5.43
2023-02-24T14:50:56.280Z,4.60
2023-02-24T14:53:24.645Z,4.80
2023-02-24T14:55:58.825Z,4.97
2023-02-24T14:58:29.220Z,7.10
2023-02-24T15:00:58.105Z,5.53
2023-02-24T15:03:29.210Z,5.37
2023-02-24T15:05:58.705Z,4.53
2023-02-24T15:08:36.529Z,4.50
2023-02-24T15:11:21.723Z,4.80
2023-02-24T15:13:53.617Z,4.10
2023-02-24T15:16:24.311Z,4.27
2023-02-24T15:18:55.068Z,4.60
2023-02-24T15:21:24.191Z,4.97
2023-02-24T15:24:00.804Z,4.30
2023-02-24T15:26:30.966Z,4.43
2023-02-24T15:29:00.243Z,4.13
2023-02-24T15:31:28.787Z,4.73
2023-02-24T15:33:57.891Z,4.87
2023-02-24T15:36:26.462Z,4.60
2023-02-24T15:38:56.564Z,4.73
2023-02-24T15:41:23.998Z,4.27
2023-02-24T15:43:55.934Z,4.40
2023-02-24T15:46:25.387Z,4.13
2023-02-24T15:48:53.916Z,4.60
2023-02-24T15:51:23.717Z,4.87
2023-02-24T15:53:51.107Z,5.03
2023-02-24T15:56:18.533Z,4.67
2023-02-24T15:58:45.904Z,4.80
2023-02-24T16:01:15.071Z,4.20
2023-02-24T16:03:43.045Z,5.47
2023-02-24T16:06:15.099Z,4.00
2023-02-24T16:08:44.738Z,3.77
2023-02-24T16:11:12.489Z,4.37
2023-02-24T16:13:40.108Z,5.37
2023-02-24T16:16:08.085Z,3.80
2023-02-24T16:18:36.906Z,4.17
2023-02-24T16:21:04.488Z,4.33
2023-02-24T16:23:38.513Z,4.00
2023-02-24T16:26:06.051Z,3.73
2023-02-24T16:28:34.563Z,4.00
2023-02-24T16:31:04.566Z,4.67
2023-02-24T16:33:48.036Z,3.73
2023-02-24T16:36:23.635Z,3.50
2023-02-24T16:38:51.863Z,3.50
2023-02-24T16:41:20.118Z,2.90
2023-02-24T16:43:47.632Z,3.00
2023-02-24T16:46:16.803Z,4.20
2023-02-24T16:48:45.893Z,3.27
2023-02-24T16:51:13.998Z,3.03
2023-02-24T16:53:43.701Z,3.27
2023-02-24T16:56:12.281Z,3.10
2023-02-24T16:58:39.711Z,3.87
2023-02-24T17:01:09.890Z,3.00
2023-02-24T17:03:38.931Z,3.20
2023-02-24T17:06:06.720Z,3.50
2023-02-24T17:08:34.496Z,3.23
2023-02-24T17:11:03.430Z,3.10
2023-02-24T17:13:30.885Z,3.50
2023-02-24T17:15:58.254Z,3.83
2023-02-24T17:18:26.101Z,3.67
2023-02-24T17:20:53.871Z,3.00
2023-02-24T17:23:21.858Z,3.30
2023-02-24T17:25:52.666Z,3.00
2023-02-24T17:28:21.969Z,3.37
2023-02-24T17:30:49.759Z,2.90
2023-02-24T17:33:17.689Z,2.80
2023-02-24T17:35:46.894Z,3.07
2023-02-24T17:38:14.815Z,3.93
2023-02-24T17:40:43.116Z,3.47
2023-02-24T17:43:11.043Z,3.73
2023-02-24T17:45:43.313Z,3.80
2023-02-24T17:48:11.040Z,3.30
2023-02-24T17:50:41.646Z,3.93
2023-02-24T17:53:09.302Z,4.33
2023-02-24T17:55:36.723Z,3.53
2023-02-24T17:58:05.993Z,4.10
2023-02-24T18:00:34.295Z,3.67
2023-02-24T18:03:03.721Z,3.57
2023-02-24T18:05:32.715Z,3.70
2023-02-24T18:08:01.555Z,5.20
2023-02-24T18:10:31.238Z,4.33
2023-02-24T18:12:58.609Z,3.97
2023-02-24T18:15:26.464Z,4.50
2023-02-24T18:17:53.860Z,5.40
2023-02-24T18:20:23.954Z,5.80
2023-02-24T18:22:52.766Z,4.80
2023-02-24T18:25:20.856Z,4.67
2023-02-24T18:27:49.282Z,5.20
2023-02-24T18:30:18.053Z,4.40
2023-02-24T18:32:47.335Z,5.00
2023-02-24T18:35:16.839Z,4.10
2023-02-24T18:37:48.784Z,5.30
2023-02-24T18:40:17.179Z,5.00
2023-02-24T18:42:45.005Z,5.23
2023-02-24T18:45:13.857Z,4.30
2023-02-24T18:47:42.269Z,5.00
2023-02-24T18:50:10.962Z,4.53
2023-02-24T18:52:38.346Z,4.80
2023-02-24T18:55:08.739Z,5.17
2023-02-24T18:57:37.152Z,5.47
2023-02-24T19:00:04.805Z,4.90
2023-02-24T19:02:32.260Z,6.77
2023-02-24T19:05:00.586Z,6.23
2023-02-24T19:07:29.948Z,6.30
2023-02-24T19:09:57.634Z,6.13
2023-02-24T19:12:26.477Z,6.43
2023-02-24T19:14:54.007Z,6.80
2023-02-24T19:17:21.472Z,6.40
2023-02-24T19:19:50.526Z,6.50
2023-02-24T19:22:18.352Z,5.93
2023-02-24T19:24:46.137Z,6.77
2023-02-24T19:27:13.994Z,6.43
2023-02-24T19:29:43.088Z,6.73
2023-02-24T19:32:11.144Z,7.20
2023-02-24T19:34:39.237Z,7.47
2023-02-24T19:37:08.712Z,7.37
2023-02-24T19:39:36.836Z,6.10
2023-02-24T19:42:06.381Z,6.17
2023-02-24T19:44:34.221Z,5.83
2023-02-24T19:47:04.646Z,6.73
2023-02-24T19:49:33.247Z,6.40
2023-02-24T19:52:00.896Z,6.40
2023-02-24T19:54:28.944Z,5.73
2023-02-24T19:56:58.385Z,4.73
2023-02-24T19:59:25.789Z,5.67
2023-02-24T20:01:54.161Z,5.70
2023-02-24T20:04:25.079Z,6.30
2023-02-24T20:06:53.300Z,6.10
2023-02-24T20:09:22.348Z,6.20
2023-02-24T20:11:51.724Z,5.17
2023-02-24T20:14:20.729Z,5.80
2023-02-24T20:16:48.291Z,5.10
2023-02-24T20:19:17.207Z,5.47
2023-02-24T20:21:46.181Z,6.33
2023-02-24T20:24:15.105Z,5.97
2023-02-24T20:26:43.478Z,5.97
2023-02-24T20:29:11.893Z,5.33
2023-02-24T20:31:39.810Z,5.63
2023-02-24T20:34:09.165Z,5.20
2023-02-24T20:36:36.581Z,5.53
2023-02-24T20:39:07.572Z,5.13
2023-02-24T20:41:35.268Z,5.57
2023-02-24T20:44:03.388Z,5.57
2023-02-24T20:46:32.646Z,4.53
2023-02-24T20:49:01.668Z,5.23
2023-02-24T20:51:30.232Z,4.97
2023-02-24T20:53:58.661Z,5.70
2023-02-24T20:56:29.127Z,5.50
2023-02-24T20:59:01.163Z,4.83
2023-02-24T21:01:29.179Z,5.70
2023-02-24T21:03:56.652Z,6.00
2023-02-24T21:06:25.397Z,5.87
2023-02-24T21:08:54.233Z,6.30
2023-02-24T21:11:22.646Z,6.10
2023-02-24T21:13:52.028Z,5.27
2023-02-24T21:16:21.356Z,5.10
2023-02-24T21:18:49.656Z,5.97
2023-02-24T21:21:17.499Z,6.97
2023-02-24T21:23:44.849Z,6.37
2023-02-24T21:26:13.548Z,6.63
2023-02-24T21:28:41.444Z,6.97
2023-02-24T21:31:11.895Z,5.93
2023-02-24T21:33:39.604Z,7.30
2023-02-24T21:36:09.562Z,6.93
2023-02-24T21:38:39.147Z,6.90
2023-02-24T21:41:07.994Z,7.43
2023-02-24T21:43:37.629Z,6.40
2023-02-24T21:46:05.942Z,6.80
2023-02-24T21:48:34.786Z,7.20
2023-02-24T21:51:05.138Z,6.53
2023-02-24T21:53:33.827Z,5.50
2023-02-24T21:56:04.662Z,7.10
2023-02-24T21:58:33.725Z,6.73
2023-02-24T22:01:02.176Z,6.27
2023-02-24T22:03:29.712Z,6.00
2023-02-24T22:05:58.542Z,5.60
2023-02-24T22:08:25.919Z,6.90
2023-02-24T22:11:00.404Z,6.80
2023-02-24T22:13:28.403Z,6.53
2023-02-24T22:15:58.900Z,6.47
2023-02-24T22:18:26.644Z,6.47
2023-02-24T22:20:54.555Z,6.97
2023-02-24T22:23:23.253Z,7.37
2023-02-24T22:25:50.631Z,7.53
2023-02-24T22:28:18.507Z,6.87
2023-02-24T22:30:47.512Z,6.60
2023-02-24T22:33:15.256Z,6.27
2023-02-24T22:35:43.199Z,6.20
2023-02-24T22:38:11.992Z,7.47
2023-02-24T22:40:41.150Z,6.67
2023-02-24T22:43:09.782Z,7.00
2023-02-24T22:45:39.217Z,6.20
2023-02-24T22:48:06.709Z,7.17
2023-02-24T22:50:34.393Z,6.63
2023-02-24T22:53:02.596Z,6.43
2023-02-24T22:55:30.832Z,6.93
2023-02-24T22:58:00.850Z,6.00
2023-02-24T23:00:29.310Z,7.63
2023-02-24T23:02:56.951Z,7.33
2023-02-24T23:05:25.314Z,7.40
2023-02-24T23:07:54.480Z,7.47
2023-02-24T23:10:23.315Z,6.43
2023-02-24T23:12:50.707Z,3.03
2023-02-24T23:15:20.482Z,1.97
2023-02-24T23:17:49.807Z,1.70
2023-02-24T23:20:17.894Z,1.40
2023-02-24T23:22:46.524Z,1.20
2023-02-24T23:25:15.637Z,1.37
2023-02-24T23:27:43.057Z,1.60
2023-02-24T23:30:12.225Z,1.30
2023-02-24T23:32:43.988Z,1.40
2023-02-24T23:35:12.815Z,1.63
2023-02-24T23:37:40.779Z,1.70
2023-02-24T23:40:10.334Z,1.90
2023-02-24T23:42:39.048Z,1.60
2023-02-24T23:45:07.433Z,2.20
2023-02-24T23:47:35.006Z,2.30
2023-02-24T23:50:04.900Z,2.40
2023-02-24T23:52:32.736Z,2.50
2023-02-24T23:55:00.624Z,2.60
2023-02-24T23:57:29.588Z,2.43
2023-02-24T23:59:58.798Z,2.47
